createdAt,value
2018-08-24T00:00:17.853Z,52.10
2018-08-24T00:04:21.575Z,52.00
2018-08-24T00:08:25.301Z,52.90
2018-08-24T00:12:28.976Z,53.50
2018-08-24T00:16:38.208Z,53.10
2018-08-24T00:20:41.916Z,52.60
2018-08-24T00:24:45.588Z,52.60
2018-08-24T00:28:49.299Z,52.80
2018-08-24T00:32:52.988Z,53.80
2018-08-24T00:36:56.697Z,53.80
2018-08-24T00:41:00.410Z,54.20
2018-08-24T00:45:04.309Z,53.40
2018-08-24T00:49:08.346Z,52.90
2018-08-24T00:53:12.109Z,53.90
2018-08-24T00:57:15.833Z,53.60
2018-08-24T01:01:19.530Z,53.90
2018-08-24T01:05:23.253Z,54.40
2018-08-24T01:09:26.950Z,53.90
2018-08-24T01:13:30.731Z,55.10
2018-08-24T01:17:39.782Z,55.60
2018-08-24T01:21:43.468Z,55.90
2018-08-24T01:25:47.311Z,55.50
2018-08-24T01:29:51.002Z,56.30
2018-08-24T01:33:54.758Z,56.70
2018-08-24T01:37:58.496Z,56.50
2018-08-24T01:42:02.275Z,56.30
2018-08-24T01:46:11.273Z,57.40
2018-08-24T01:50:15.124Z,58.00
2018-08-24T01:54:18.820Z,57.40
2018-08-24T01:58:22.496Z,59.00
2018-08-24T02:02:26.192Z,58.50
2018-08-24T02:06:29.845Z,59.00
2018-08-24T02:10:33.552Z,57.80
2018-08-24T02:14:41.373Z,59.00
2018-08-24T02:18:50.345Z,59.30
2018-08-24T02:22:59.736Z,58.80
2018-08-24T02:27:03.441Z,59.50
2018-08-24T02:31:07.173Z,58.40
2018-08-24T02:35:10.901Z,58.10
2018-08-24T02:39:16.850Z,57.80
2018-08-24T02:43:20.604Z,59.10
2018-08-24T02:47:24.253Z,58.90
2018-08-24T02:51:27.938Z,58.30
2018-08-24T02:55:31.639Z,57.80
2018-08-24T02:59:35.412Z,57.80
2018-08-24T03:03:39.081Z,57.30
2018-08-24T03:07:42.766Z,58.40
2018-08-24T03:11:46.469Z,58.00
2018-08-24T03:15:50.167Z,58.20
2018-08-24T03:19:53.907Z,57.80
2018-08-24T03:23:57.596Z,58.80
2018-08-24T03:28:01.286Z,58.00
2018-08-24T03:32:04.995Z,57.60
2018-08-24T03:36:08.833Z,57.70
2018-08-24T03:40:12.515Z,57.80
2018-08-24T03:44:16.208Z,58.10
2018-08-24T03:48:19.853Z,57.90
2018-08-24T03:52:23.558Z,58.00
2018-08-24T03:56:27.237Z,57.60
2018-08-24T04:00:30.925Z,58.60
2018-08-24T04:04:34.620Z,57.90
2018-08-24T04:08:38.272Z,57.10
2018-08-24T04:12:42.049Z,57.30
2018-08-24T04:16:50.980Z,58.10
2018-08-24T04:20:54.659Z,58.20
2018-08-24T04:24:58.343Z,57.70
2018-08-24T04:29:02.030Z,59.30
2018-08-24T04:33:05.748Z,58.20
2018-08-24T04:37:09.533Z,57.60
2018-08-24T04:41:13.255Z,57.20
2018-08-24T04:45:16.970Z,57.10
2018-08-24T04:49:20.641Z,57.10
2018-08-24T04:53:24.312Z,56.60
2018-08-24T04:57:27.985Z,56.30
2018-08-24T05:01:31.660Z,56.60
2018-08-24T05:05:35.370Z,56.50
2018-08-24T05:09:39.122Z,57.60
2018-08-24T05:13:42.804Z,56.80
2018-08-24T05:17:46.606Z,56.00
2018-08-24T05:21:53.257Z,57.20
2018-08-24T05:25:56.958Z,56.70
2018-08-24T05:30:00.605Z,57.70
2018-08-24T05:34:04.280Z,58.40
2018-08-24T05:38:08.088Z,58.20
2018-08-24T05:42:11.801Z,58.90
2018-08-24T05:46:15.508Z,58.40
2018-08-24T05:50:19.189Z,58.90
2018-08-24T05:54:22.888Z,58.00
2018-08-24T05:58:26.644Z,58.70
2018-08-24T06:02:30.402Z,59.20
2018-08-24T06:06:34.081Z,58.40
2018-08-24T06:10:37.769Z,58.10
2018-08-24T06:14:41.503Z,58.30
2018-08-24T06:18:45.235Z,58.20
2018-08-24T06:22:48.968Z,57.30
2018-08-24T06:26:52.675Z,57.30
2018-08-24T06:30:56.312Z,56.50
2018-08-24T06:35:00.006Z,57.70
2018-08-24T06:39:04.825Z,57.20
2018-08-24T06:43:08.520Z,56.90
2018-08-24T06:47:12.244Z,57.00
2018-08-24T06:51:16.574Z,57.10
2018-08-24T06:55:20.269Z,57.20
2018-08-24T06:59:23.939Z,56.80
2018-08-24T07:03:27.638Z,56.80
2018-08-24T07:07:31.356Z,56.90
2018-08-24T07:11:34.993Z,56.90
2018-08-24T07:15:38.751Z,56.50
2018-08-24T07:19:42.464Z,56.40
2018-08-24T07:23:46.208Z,56.30
2018-08-24T07:27:49.936Z,56.50
2018-08-24T07:31:53.595Z,56.50
2018-08-24T07:35:57.364Z,56.40
2018-08-24T07:40:01.020Z,57.30
2018-08-24T07:44:04.889Z,56.60
2018-08-24T07:48:08.629Z,56.50
2018-08-24T07:52:12.324Z,56.70
2018-08-24T07:56:16.057Z,57.20
2018-08-24T08:00:20.030Z,57.00
2018-08-24T08:04:23.704Z,57.00
2018-08-24T08:08:27.527Z,57.90
2018-08-24T08:12:31.249Z,58.50
2018-08-24T08:16:36.690Z,57.50
2018-08-24T08:20:40.385Z,57.30
2018-08-24T08:24:44.079Z,57.60
2018-08-24T08:28:47.808Z,57.60
2018-08-24T08:32:51.503Z,57.50
2018-08-24T08:36:55.201Z,57.30
2018-08-24T08:40:58.903Z,57.70
2018-08-24T08:45:02.604Z,57.20
2018-08-24T08:49:06.338Z,58.10
2018-08-24T08:53:09.997Z,58.00
2018-08-24T08:57:13.718Z,57.40
2018-08-24T09:01:17.412Z,57.60
2018-08-24T09:05:21.106Z,57.90
2018-08-24T09:09:24.819Z,58.90
2018-08-24T09:13:28.525Z,58.90
2018-08-24T09:17:37.585Z,58.70
2018-08-24T09:21:46.567Z,59.10
2018-08-24T09:25:55.539Z,60.80
2018-08-24T09:30:02.072Z,62.60
2018-08-24T09:34:06.112Z,63.00
2018-08-24T09:38:09.828Z,61.80
2018-08-24T09:42:13.540Z,63.00
2018-08-24T09:46:17.368Z,63.10
2018-08-24T09:50:26.520Z,63.10
2018-08-24T09:54:30.224Z,64.40
2018-08-24T09:58:33.936Z,63.80
2018-08-24T10:02:42.672Z,65.00
2018-08-24T10:06:51.795Z,66.10
2018-08-24T10:10:55.474Z,65.60
2018-08-24T10:14:59.192Z,66.10
2018-08-24T10:19:02.953Z,65.60
2018-08-24T10:23:06.765Z,65.60
2018-08-24T10:27:10.494Z,65.90
2018-08-24T10:31:14.191Z,66.10
2018-08-24T10:35:17.878Z,66.20
2018-08-24T10:39:21.784Z,65.50
2018-08-24T10:43:25.474Z,64.60
2018-08-24T10:47:29.199Z,63.50
2018-08-24T10:51:32.936Z,64.00
2018-08-24T10:55:36.680Z,63.70
2018-08-24T10:59:40.356Z,61.80
2018-08-24T11:03:44.071Z,61.50
2018-08-24T11:07:47.819Z,60.80
2018-08-24T11:11:51.474Z,60.20
2018-08-24T11:15:55.188Z,60.50
2018-08-24T11:19:58.850Z,59.90
2018-08-24T11:24:02.608Z,59.70
2018-08-24T11:28:06.392Z,59.30
2018-08-24T11:32:10.124Z,59.20
2018-08-24T11:36:13.916Z,57.30
2018-08-24T11:40:17.538Z,56.40
2018-08-24T11:44:21.340Z,55.80
2018-08-24T11:48:27.423Z,55.80
2018-08-24T11:52:31.117Z,55.90
2018-08-24T11:56:34.801Z,54.00
2018-08-24T12:00:38.517Z,52.00
2018-08-24T12:04:42.242Z,51.50
2018-08-24T12:08:45.953Z,50.90
2018-08-24T12:12:49.667Z,49.00
2018-08-24T12:16:53.650Z,49.80
2018-08-24T12:20:57.331Z,48.70
2018-08-24T12:25:01.027Z,47.60
2018-08-24T12:29:04.745Z,47.20
2018-08-24T12:33:08.435Z,48.20
2018-08-24T12:37:13.307Z,47.40
2018-08-24T12:41:17.064Z,46.30
2018-08-24T12:45:20.789Z,45.70
2018-08-24T12:49:24.552Z,45.10
2018-08-24T12:53:28.192Z,46.20
2018-08-24T12:57:31.972Z,43.90
2018-08-24T13:01:35.644Z,44.10
2018-08-24T13:05:39.345Z,44.30
2018-08-24T13:09:43.051Z,42.70
2018-08-24T13:13:46.764Z,45.80
2018-08-24T13:17:50.466Z,43.40
2018-08-24T13:21:54.155Z,44.10
2018-08-24T13:25:57.893Z,41.10
2018-08-24T13:30:01.597Z,42.30
2018-08-24T13:34:05.401Z,41.30
2018-08-24T13:38:09.117Z,42.40
2018-08-24T13:42:12.808Z,42.80
2018-08-24T13:46:20.142Z,42.50
2018-08-24T13:50:23.857Z,41.50
2018-08-24T13:54:27.578Z,42.50
2018-08-24T13:58:31.265Z,41.30
2018-08-24T14:02:35.063Z,41.80
2018-08-24T14:06:38.755Z,42.60
2018-08-24T14:10:42.491Z,41.60
2018-08-24T14:14:46.191Z,41.30
2018-08-24T14:18:49.905Z,41.50
2018-08-24T14:22:53.604Z,40.50
2018-08-24T14:26:57.354Z,40.30
2018-08-24T14:31:01.048Z,41.70
2018-08-24T14:35:04.793Z,38.50
2018-08-24T14:39:09.896Z,40.30
2018-08-24T14:43:13.609Z,39.90
2018-08-24T14:47:17.306Z,40.20
2018-08-24T14:51:21.015Z,39.00
2018-08-24T14:55:24.731Z,39.70
2018-08-24T14:59:28.435Z,39.60
2018-08-24T15:03:32.114Z,37.60
2018-08-24T15:07:35.808Z,40.30
2018-08-24T15:11:39.553Z,41.90
2018-08-24T15:15:43.273Z,41.80
2018-08-24T15:19:46.980Z,42.00
2018-08-24T15:23:50.663Z,41.60
2018-08-24T15:27:54.418Z,42.60
2018-08-24T15:31:58.121Z,41.80
2018-08-24T15:36:01.912Z,42.40
2018-08-24T15:40:06.478Z,42.60
2018-08-24T15:44:10.189Z,42.20
2018-08-24T15:48:13.899Z,42.20
2018-08-24T15:52:17.591Z,42.10
2018-08-24T15:56:21.300Z,42.70
2018-08-24T16:00:25.082Z,42.80
2018-08-24T16:04:28.783Z,42.40
2018-08-24T16:08:32.495Z,43.60
2018-08-24T16:12:36.329Z,43.40
2018-08-24T16:16:40.109Z,43.10
2018-08-24T16:20:43.789Z,43.30
2018-08-24T16:24:47.457Z,43.60
2018-08-24T16:28:51.270Z,44.30
2018-08-24T16:32:54.965Z,45.00
2018-08-24T16:36:58.692Z,44.90
2018-08-24T16:41:02.385Z,45.10
2018-08-24T16:45:06.114Z,45.50
2018-08-24T16:49:09.781Z,45.50
2018-08-24T16:53:13.467Z,45.50
2018-08-24T16:57:17.178Z,45.30
2018-08-24T17:01:20.970Z,45.10
2018-08-24T17:05:24.661Z,44.80
2018-08-24T17:09:28.473Z,44.50
2018-08-24T17:13:32.170Z,43.80
2018-08-24T17:17:35.974Z,44.00
2018-08-24T17:21:39.748Z,44.10
2018-08-24T17:25:43.486Z,43.80
2018-08-24T17:29:47.142Z,44.20
2018-08-24T17:33:50.857Z,43.80
2018-08-24T17:37:54.548Z,44.40
2018-08-24T17:41:58.331Z,44.60
2018-08-24T17:46:01.990Z,44.50
2018-08-24T17:50:06.112Z,44.60
2018-08-24T17:54:09.804Z,44.90
2018-08-24T17:58:13.620Z,45.10
2018-08-24T18:02:18.178Z,45.20
2018-08-24T18:06:21.897Z,45.10
2018-08-24T18:10:25.624Z,45.20
2018-08-24T18:14:29.314Z,45.10
2018-08-24T18:18:33.066Z,45.50
2018-08-24T18:22:36.776Z,45.40
2018-08-24T18:26:40.492Z,45.40
2018-08-24T18:30:44.179Z,45.40
2018-08-24T18:34:47.933Z,45.40
2018-08-24T18:38:51.606Z,45.70
2018-08-24T18:42:55.286Z,45.80
2018-08-24T18:46:58.973Z,45.80
2018-08-24T18:51:02.645Z,46.00
2018-08-24T18:55:06.986Z,46.00
2018-08-24T18:59:10.684Z,46.10
2018-08-24T19:03:14.955Z,46.30
2018-08-24T19:07:18.794Z,46.30
2018-08-24T19:11:27.873Z,46.40
2018-08-24T19:15:31.650Z,46.50
2018-08-24T19:19:40.705Z,46.70
2018-08-24T19:23:44.385Z,46.70
2018-08-24T19:27:53.537Z,46.80
2018-08-24T19:31:57.210Z,46.80
2018-08-24T19:36:00.916Z,47.00
2018-08-24T19:40:09.900Z,46.90
2018-08-24T19:44:13.693Z,46.90
2018-08-24T19:48:22.708Z,47.30
2018-08-24T19:52:26.474Z,47.20
2018-08-24T19:56:30.147Z,47.20
2018-08-24T20:00:33.883Z,47.30
2018-08-24T20:04:37.552Z,47.30
2018-08-24T20:08:46.609Z,47.60
2018-08-24T20:12:50.243Z,47.60
2018-08-24T20:16:59.233Z,47.70
2018-08-24T20:21:02.945Z,47.80
2018-08-24T20:25:06.808Z,47.80
2018-08-24T20:29:10.515Z,47.80
2018-08-24T20:33:14.152Z,48.30
2018-08-24T20:37:17.843Z,48.00
2018-08-24T20:41:21.566Z,48.00
2018-08-24T20:45:25.249Z,48.10
2018-08-24T20:49:28.938Z,48.10
2018-08-24T20:53:32.573Z,48.10
2018-08-24T20:57:36.298Z,48.20
2018-08-24T21:01:39.953Z,48.20
2018-08-24T21:05:43.647Z,48.40
2018-08-24T21:09:47.340Z,48.60
2018-08-24T21:13:50.987Z,48.50
2018-08-24T21:17:54.727Z,48.70
2018-08-24T21:21:58.433Z,48.60
2018-08-24T21:26:02.139Z,48.80
2018-08-24T21:30:06.277Z,48.70
2018-08-24T21:34:09.927Z,49.00
2018-08-24T21:38:13.591Z,48.80
2018-08-24T21:42:17.255Z,48.90
2018-08-24T21:46:20.932Z,48.90
2018-08-24T21:50:24.596Z,48.90
2018-08-24T21:54:28.268Z,48.80
2018-08-24T21:58:31.944Z,49.10
2018-08-24T22:02:42.708Z,49.50
2018-08-24T22:06:46.384Z,49.20
2018-08-24T22:10:50.055Z,49.10
2018-08-24T22:14:53.792Z,49.10
2018-08-24T22:18:57.454Z,49.40
2018-08-24T22:23:01.144Z,49.30
2018-08-24T22:27:04.944Z,49.10
2018-08-24T22:31:08.630Z,49.20
2018-08-24T22:35:12.367Z,49.20
2018-08-24T22:39:16.090Z,49.10
2018-08-24T22:43:25.076Z,49.80
2018-08-24T22:47:28.824Z,49.40
2018-08-24T22:51:32.514Z,48.90
2018-08-24T22:55:36.193Z,49.50
2018-08-24T22:59:39.893Z,49.50
2018-08-24T23:03:43.572Z,49.60
2018-08-24T23:07:47.309Z,49.60
2018-08-24T23:11:51.076Z,50.30
2018-08-24T23:15:54.746Z,50.10
2018-08-24T23:19:58.405Z,49.70
2018-08-24T23:24:02.103Z,49.50
2018-08-24T23:28:05.885Z,49.60
2018-08-24T23:32:09.541Z,49.60
2018-08-24T23:36:13.351Z,49.60
2018-08-24T23:40:16.988Z,49.80
2018-08-24T23:44:20.709Z,49.60
2018-08-24T23:48:24.404Z,49.90
2018-08-24T23:52:28.070Z,49.90
2018-08-24T23:56:31.735Z,49.90
